Time;durP1;ratioP1;P1;durP2;ratioP2;P2;SDS_P1;SDS_P2;PMS_P1;PMS_P2;Temp;Humidity;BMP_temperature;BMP_pressure;BME280_temperature;BME280_humidity;BME280_pressure;Samples;Min_cycle;Max_cycle;Signal;HPM_P1;HPM_P2
2021/03/23 00:01:32;;;;;;;12.67;8.50;;;;;;;;;;5025368;28;20706;-68
2021/03/23 00:03:57;;;;;;;11.20;8.30;;;;;;;;;;5037647;28;20596;-69
2021/03/23 00:06:23;;;;;;;15.30;8.83;;;;;;;;;;5041445;28;20181;-69
2021/03/23 00:08:50;;;;;;;12.20;9.37;;;;;;;;;;5039272;28;20263;-67
2021/03/23 00:11:23;;;;;;;12.37;8.73;;;;;;;;;;5048323;28;20550;-67
2021/03/23 00:13:49;;;;;;;12.70;8.90;;;;;;;;;;5045714;28;20682;-68
2021/03/23 00:16:15;;;;;;;14.13;10.07;;;;;;;;;;5037236;28;20257;-68
2021/03/23 00:18:41;;;;;;;12.20;9.00;;;;;;;;;;5037906;28;20321;-67
2021/03/23 00:21:07;;;;;;;12.67;9.37;;;;;;;;;;5049008;28;20679;-67
2021/03/23 00:23:32;;;;;;;16.07;9.07;;;;;;;;;;5051507;28;20729;-67
2021/03/23 00:25:57;;;;;;;18.40;9.60;;;;;;;;;;5051660;28;20174;-67
2021/03/23 00:28:24;;;;;;;13.53;8.87;;;;;;;;;;5044634;28;20563;-68
2021/03/23 00:30:52;;;;;;;13.53;9.03;;;;;;;;;;5037679;28;20255;-68
2021/03/23 00:33:17;;;;;;;14.80;9.83;;;;;;;;;;5032942;28;20189;-67
2021/03/23 00:35:42;;;;;;;12.60;9.27;;;;;;;;;;5037256;28;20205;-67
2021/03/23 00:38:08;;;;;;;12.40;8.67;;;;;;;;;;5039488;28;20239;-68
2021/03/23 00:40:34;;;;;;;14.17;9.17;;;;;;;;;;5041886;28;20202;-67
2021/03/23 00:43:01;;;;;;;12.40;8.60;;;;;;;;;;5035569;28;20190;-67
2021/03/23 00:45:26;;;;;;;15.83;9.53;;;;;;;;;;5038162;28;20192;-67
2021/03/23 00:47:52;;;;;;;13.77;9.50;;;;;;;;;;5042411;28;20189;-67
2021/03/23 00:50:17;;;;;;;15.63;9.30;;;;;;;;;;5048391;28;20205;-67
2021/03/23 00:52:42;;;;;;;15.80;9.07;;;;;;;;;;5049645;28;20186;-67
2021/03/23 00:55:08;;;;;;;12.33;8.33;;;;;;;;;;5046081;28;20227;-67
2021/03/23 00:57:33;;;;;;;14.37;9.00;;;;;;;;;;5050179;28;20639;-66
2021/03/23 00:59:58;;;;;;;16.60;8.83;;;;;;;;;;5046990;28;20193;-67
2021/03/23 01:02:24;;;;;;;12.00;7.80;;;;;;;;;;5047751;28;20242;-67
2021/03/23 01:04:49;;;;;;;10.33;7.27;;;;;;;;;;5042086;28;20177;-67
2021/03/23 01:07:14;;;;;;;13.77;8.43;;;;;;;;;;5046226;28;20708;-67
2021/03/23 01:09:39;;;;;;;15.00;8.50;;;;;;;;;;5044469;28;20347;-67
2021/03/23 01:12:07;;;;;;;17.53;8.83;;;;;;;;;;5047857;28;20180;-68
2021/03/23 01:14:33;;;;;;;12.40;7.90;;;;;;;;;;5049186;28;20174;-66
2021/03/23 01:16:58;;;;;;;13.03;8.00;;;;;;;;;;5040225;28;20220;-68
2021/03/23 01:19:23;;;;;;;13.10;7.90;;;;;;;;;;5048225;28;20227;-67
2021/03/23 01:21:48;;;;;;;15.80;8.57;;;;;;;;;;5051635;28;20192;-68
2021/03/23 01:24:13;;;;;;;15.40;7.13;;;;;;;;;;5047755;28;20178;-67
2021/03/23 01:26:38;;;;;;;14.27;8.43;;;;;;;;;;5051304;28;20213;-67
2021/03/23 01:29:03;;;;;;;13.37;7.00;;;;;;;;;;5052025;28;20169;-67
2021/03/23 01:31:29;;;;;;;12.80;7.80;;;;;;;;;;5052761;28;20721;-67
2021/03/23 01:33:54;;;;;;;13.23;8.00;;;;;;;;;;5051732;28;20186;-67
2021/03/23 01:36:19;;;;;;;11.77;8.07;;;;;;;;;;5047117;28;20177;-67
2021/03/23 01:38:44;;;;;;;12.30;7.87;;;;;;;;;;5047415;28;20205;-66
2021/03/23 01:41:09;;;;;;;15.00;8.40;;;;;;;;;;5052471;28;20675;-67
2021/03/23 01:43:36;;;;;;;14.23;8.17;;;;;;;;;;5049051;28;20256;-67
2021/03/23 01:46:02;;;;;;;12.27;8.00;;;;;;;;;;5053255;28;20182;-67
2021/03/23 01:48:31;;;;;;;13.43;8.87;;;;;;;;;;5044619;28;20197;-67
2021/03/23 01:51:01;;;;;;;15.43;8.57;;;;;;;;;;5052721;28;20193;-67
2021/03/23 01:53:31;;;;;;;17.57;9.27;;;;;;;;;;5051100;28;20679;-67
2021/03/23 01:55:57;;;;;;;14.93;8.87;;;;;;;;;;5046437;28;20182;-67
2021/03/23 01:58:22;;;;;;;15.70;8.53;;;;;;;;;;5052606;28;20324;-68
2021/03/23 02:00:48;;;;;;;18.10;9.40;;;;;;;;;;5048685;28;20284;-67
2021/03/23 02:03:13;;;;;;;15.70;9.77;;;;;;;;;;5040829;28;20242;-67
2021/03/23 02:05:39;;;;;;;15.87;9.77;;;;;;;;;;5048273;28;20177;-68
2021/03/23 02:08:05;;;;;;;16.33;9.93;;;;;;;;;;5047557;28;20572;-67
2021/03/23 02:10:30;;;;;;;19.33;9.70;;;;;;;;;;5049932;28;20296;-67
2021/03/23 02:12:56;;;;;;;19.00;10.83;;;;;;;;;;5049461;28;20312;-67
2021/03/23 02:15:22;;;;;;;16.10;9.23;;;;;;;;;;5049198;28;20182;-68
2021/03/23 02:18:06;;;;;;;14.70;9.10;;;;;;;;;;5049503;28;20189;-67
2021/03/23 02:20:31;;;;;;;15.87;9.60;;;;;;;;;;5046051;28;20582;-67
2021/03/23 02:23:04;;;;;;;17.30;9.53;;;;;;;;;;5042195;28;20189;-67
2021/03/23 02:25:29;;;;;;;21.83;10.73;;;;;;;;;;5047075;28;20679;-67
2021/03/23 02:27:54;;;;;;;23.00;10.90;;;;;;;;;;5051051;28;20208;-67
2021/03/23 02:30:32;;;;;;;21.83;12.53;;;;;;;;;;5051696;28;20304;-67
2021/03/23 02:32:57;;;;;;;18.60;11.03;;;;;;;;;;5039577;28;20189;-67
2021/03/23 02:35:22;;;;;;;17.13;10.83;;;;;;;;;;5044972;28;20201;-67
2021/03/23 02:37:48;;;;;;;21.50;12.03;;;;;;;;;;5052881;28;20194;-67
2021/03/23 02:40:13;;;;;;;22.63;13.33;;;;;;;;;;5042904;28;20241;-67
2021/03/23 02:42:38;;;;;;;19.37;11.73;;;;;;;;;;5047664;28;20190;-67
2021/03/23 02:45:04;;;;;;;18.00;12.17;;;;;;;;;;5050881;28;20171;-68
2021/03/23 02:47:29;;;;;;;19.57;11.87;;;;;;;;;;5046899;28;20470;-67
2021/03/23 02:49:54;;;;;;;24.40;13.27;;;;;;;;;;5052197;28;20201;-67
2021/03/23 02:52:19;;;;;;;21.27;13.03;;;;;;;;;;5052077;28;20280;-67
2021/03/23 02:54:45;;;;;;;23.97;12.10;;;;;;;;;;5048714;28;20186;-67
2021/03/23 02:57:10;;;;;;;17.43;12.50;;;;;;;;;;5049166;28;20244;-68
2021/03/23 02:59:36;;;;;;;20.40;12.30;;;;;;;;;;5051402;28;20743;-67
2021/03/23 03:02:03;;;;;;;19.67;14.23;;;;;;;;;;5047488;28;20196;-68
2021/03/23 03:04:28;;;;;;;23.20;12.67;;;;;;;;;;5050209;28;20526;-68
2021/03/23 03:06:53;;;;;;;21.20;13.23;;;;;;;;;;5045881;28;20276;-68
2021/03/23 03:09:18;;;;;;;21.70;12.83;;;;;;;;;;5042250;28;20679;-68
2021/03/23 03:11:43;;;;;;;25.37;13.90;;;;;;;;;;5047360;28;20173;-69
2021/03/23 03:14:09;;;;;;;27.60;15.53;;;;;;;;;;5050580;28;20251;-68
2021/03/23 03:16:34;;;;;;;20.57;13.40;;;;;;;;;;5049192;28;20178;-68
2021/03/23 03:18:59;;;;;;;23.10;14.80;;;;;;;;;;5047356;28;20180;-69
2021/03/23 03:21:24;;;;;;;25.00;14.57;;;;;;;;;;5049485;28;20211;-68
2021/03/23 03:23:49;;;;;;;24.80;15.90;;;;;;;;;;5042875;28;20196;-68
2021/03/23 03:26:15;;;;;;;22.60;14.47;;;;;;;;;;5049210;28;20189;-68
2021/03/23 03:28:40;;;;;;;28.07;15.27;;;;;;;;;;5048920;28;20276;-68
2021/03/23 03:31:05;;;;;;;29.13;15.23;;;;;;;;;;5051154;28;20535;-68
2021/03/23 03:33:31;;;;;;;20.23;15.50;;;;;;;;;;5045879;28;20214;-67
2021/03/23 03:35:56;;;;;;;25.87;15.60;;;;;;;;;;5048807;28;20540;-67
2021/03/23 03:38:22;;;;;;;22.73;14.90;;;;;;;;;;5047922;28;20225;-68
2021/03/23 03:40:52;;;;;;;24.47;15.30;;;;;;;;;;5048908;28;20201;-68
2021/03/23 03:43:19;;;;;;;23.37;14.97;;;;;;;;;;5049427;28;20182;-69
2021/03/23 03:45:44;;;;;;;24.67;16.17;;;;;;;;;;5046119;28;20181;-68
2021/03/23 03:48:09;;;;;;;29.63;16.13;;;;;;;;;;5046054;28;21260;-68
2021/03/23 03:50:35;;;;;;;23.67;15.60;;;;;;;;;;5046376;28;20194;-68
2021/03/23 03:53:00;;;;;;;26.40;17.20;;;;;;;;;;5040515;28;20190;-68
2021/03/23 03:55:28;;;;;;;25.13;16.80;;;;;;;;;;5049571;28;20188;-68
2021/03/23 03:57:53;;;;;;;23.60;16.87;;;;;;;;;;5046747;28;20181;-68
2021/03/23 04:00:21;;;;;;;24.67;16.30;;;;;;;;;;5051022;28;20208;-68
2021/03/23 04:02:46;;;;;;;26.63;16.87;;;;;;;;;;5046881;28;20529;-67
2021/03/23 04:05:28;;;;;;;22.20;16.27;;;;;;;;;;5039626;28;20177;-68
2021/03/23 04:07:53;;;;;;;23.57;15.50;;;;;;;;;;5044946;28;20256;-67
2021/03/23 04:10:19;;;;;;;26.47;18.50;;;;;;;;;;5046104;28;20317;-68
2021/03/23 04:12:44;;;;;;;28.27;17.53;;;;;;;;;;5044208;28;20184;-68
2021/03/23 04:15:10;;;;;;;25.13;17.50;;;;;;;;;;5050404;28;20696;-68
2021/03/23 04:17:35;;;;;;;27.50;17.37;;;;;;;;;;5049501;28;20209;-68
2021/03/23 04:20:00;;;;;;;34.40;18.77;;;;;;;;;;5050650;28;20251;-69
2021/03/23 04:22:26;;;;;;;28.20;18.40;;;;;;;;;;5048460;28;20181;-67
2021/03/23 04:24:51;;;;;;;28.27;18.87;;;;;;;;;;5049581;28;20205;-68
2021/03/23 04:27:16;;;;;;;36.80;20.00;;;;;;;;;;5051401;28;20231;-67
2021/03/23 04:29:41;;;;;;;27.63;18.83;;;;;;;;;;5045091;28;20315;-69
2021/03/23 04:32:07;;;;;;;26.33;18.43;;;;;;;;;;5047813;28;20181;-68
2021/03/23 04:34:32;;;;;;;33.17;19.27;;;;;;;;;;5046955;28;20472;-67
2021/03/23 04:36:57;;;;;;;28.77;19.87;;;;;;;;;;5048593;28;20663;-68
2021/03/23 04:39:22;;;;;;;31.87;19.53;;;;;;;;;;5047436;28;20181;-68
2021/03/23 04:41:47;;;;;;;34.90;20.30;;;;;;;;;;5041516;28;20190;-68
2021/03/23 04:44:12;;;;;;;33.07;19.97;;;;;;;;;;5045087;28;20173;-68
2021/03/23 04:46:38;;;;;;;34.50;20.83;;;;;;;;;;5047646;28;20265;-68
2021/03/23 04:49:03;;;;;;;32.40;19.40;;;;;;;;;;5048441;28;20170;-69
2021/03/23 04:51:29;;;;;;;30.30;18.47;;;;;;;;;;5045122;28;20201;-68
2021/03/23 04:54:02;;;;;;;29.37;19.10;;;;;;;;;;5046859;28;20170;-68
2021/03/23 04:56:29;;;;;;;31.60;20.10;;;;;;;;;;5051203;28;20173;-68
2021/03/23 04:58:55;;;;;;;30.10;20.33;;;;;;;;;;5056540;28;20169;-68
2021/03/23 05:01:21;;;;;;;37.80;21.43;;;;;;;;;;5051764;28;20671;-68
2021/03/23 05:03:46;;;;;;;35.03;21.73;;;;;;;;;;5053893;28;20234;-68
2021/03/23 05:06:12;;;;;;;40.83;21.87;;;;;;;;;;5055190;28;20235;-69
2021/03/23 05:08:40;;;;;;;37.10;21.07;;;;;;;;;;5046944;28;20181;-68
2021/03/23 05:11:06;;;;;;;33.67;21.57;;;;;;;;;;5052776;28;20690;-69
2021/03/23 05:13:31;;;;;;;33.60;21.87;;;;;;;;;;5052139;28;20256;-68
2021/03/23 05:15:58;;;;;;;40.30;23.87;;;;;;;;;;5055497;28;20175;-68
2021/03/23 05:18:23;;;;;;;41.57;22.77;;;;;;;;;;5056465;28;20186;-68
2021/03/23 05:20:49;;;;;;;38.23;22.83;;;;;;;;;;5056664;28;20634;-68
2021/03/23 05:23:14;;;;;;;37.93;22.77;;;;;;;;;;5055116;28;20185;-68
2021/03/23 05:25:43;;;;;;;37.07;21.90;;;;;;;;;;5056486;28;20184;-68
2021/03/23 05:28:08;;;;;;;35.57;21.20;;;;;;;;;;5052926;28;20181;-68
2021/03/23 05:30:34;;;;;;;36.20;21.97;;;;;;;;;;5054559;28;20204;-68
2021/03/23 05:32:59;;;;;;;36.63;23.30;;;;;;;;;;5047925;28;20243;-68
2021/03/23 05:35:24;;;;;;;40.10;22.67;;;;;;;;;;5054619;28;20174;-68
2021/03/23 05:37:50;;;;;;;54.30;24.27;;;;;;;;;;5051286;28;20616;-68
2021/03/23 05:40:35;;;;;;;46.63;25.50;;;;;;;;;;5055874;28;20221;-67
2021/03/23 05:43:03;;;;;;;36.30;23.93;;;;;;;;;;5053435;28;20450;-67
2021/03/23 05:45:32;;;;;;;46.47;24.80;;;;;;;;;;5057226;28;20208;-68
2021/03/23 05:48:18;;;;;;;38.73;23.43;;;;;;;;;;5057025;28;20216;-68
2021/03/23 05:50:45;;;;;;;43.57;23.80;;;;;;;;;;5053360;28;20217;-68
2021/03/23 05:53:26;;;;;;;39.53;23.20;;;;;;;;;;5055736;28;20186;-68
2021/03/23 05:55:51;;;;;;;36.83;21.80;;;;;;;;;;5051441;28;20251;-68
2021/03/23 05:58:24;;;;;;;48.30;25.90;;;;;;;;;;5055398;28;20635;-67
2021/03/23 06:01:05;;;;;;;42.63;24.97;;;;;;;;;;5055952;28;20249;-69
2021/03/23 06:03:34;;;;;;;45.07;25.73;;;;;;;;;;5042963;28;20185;-67
2021/03/23 06:06:02;;;;;;;43.40;26.27;;;;;;;;;;5041048;28;20269;-68
2021/03/23 06:08:28;;;;;;;44.87;25.03;;;;;;;;;;5037545;28;20185;-68
2021/03/23 06:11:05;;;;;;;49.47;26.00;;;;;;;;;;5045582;28;20209;-68
2021/03/23 06:13:41;;;;;;;46.73;26.57;;;;;;;;;;5048528;28;20177;-68
2021/03/23 06:16:34;;;;;;;53.17;25.93;;;;;;;;;;5052680;28;20264;-68
2021/03/23 06:19:00;;;;;;;51.50;26.90;;;;;;;;;;5050708;28;20208;-69
2021/03/23 06:21:27;;;;;;;57.30;31.00;;;;;;;;;;5053517;28;20198;-68
2021/03/23 06:24:11;;;;;;;57.00;28.13;;;;;;;;;;5047392;28;20265;-68
2021/03/23 06:26:47;;;;;;;51.50;28.07;;;;;;;;;;5044660;28;20625;-67
2021/03/23 06:29:24;;;;;;;59.80;29.73;;;;;;;;;;5051024;28;20181;-69
2021/03/23 06:31:55;;;;;;;67.53;31.70;;;;;;;;;;5048248;28;20193;-68
2021/03/23 06:34:24;;;;;;;66.17;30.73;;;;;;;;;;5042739;28;20212;-68
2021/03/23 06:36:50;;;;;;;73.87;34.13;;;;;;;;;;5050579;28;20842;-68
2021/03/23 06:39:15;;;;;;;78.13;35.23;;;;;;;;;;5043712;28;20552;-68
2021/03/23 06:41:54;;;;;;;75.50;34.87;;;;;;;;;;5036745;28;20174;-69
2021/03/23 06:44:25;;;;;;;76.03;36.67;;;;;;;;;;5047265;28;20955;-67
2021/03/23 06:46:52;;;;;;;85.23;37.13;;;;;;;;;;5046856;28;20189;-68
2021/03/23 06:49:25;;;;;;;86.83;37.60;;;;;;;;;;5047717;28;20173;-68
2021/03/23 06:51:50;;;;;;;85.73;39.47;;;;;;;;;;5052161;28;20189;-68
2021/03/23 06:54:17;;;;;;;83.82;39.80;;;;;;;;;;5048448;28;20235;-68
2021/03/23 06:56:43;;;;;;;94.63;38.67;;;;;;;;;;5049925;28;20181;-68
2021/03/23 06:59:13;;;;;;;81.37;38.37;;;;;;;;;;5047494;28;20534;-68
2021/03/23 07:01:39;;;;;;;81.70;37.10;;;;;;;;;;5047302;28;20200;-68
2021/03/23 07:04:18;;;;;;;86.63;37.00;;;;;;;;;;5047755;28;20211;-67
2021/03/23 07:06:43;;;;;;;75.50;35.73;;;;;;;;;;5042963;28;20239;-66
2021/03/23 07:09:16;;;;;;;72.67;34.30;;;;;;;;;;5040918;28;20199;-68
2021/03/23 07:11:56;;;;;;;76.67;34.27;;;;;;;;;;5039147;28;20292;-68
2021/03/23 07:14:23;;;;;;;67.90;35.43;;;;;;;;;;5038712;28;20178;-68
2021/03/23 07:16:48;;;;;;;76.43;33.50;;;;;;;;;;5038948;28;20215;-69
2021/03/23 07:19:13;;;;;;;68.17;33.03;;;;;;;;;;5039078;28;20550;-67
2021/03/23 07:21:46;;;;;;;66.70;35.37;;;;;;;;;;5039029;28;20182;-68
2021/03/23 07:24:13;;;;;;;75.87;33.87;;;;;;;;;;5042017;28;20268;-67
2021/03/23 07:26:58;;;;;;;73.57;34.00;;;;;;;;;;5037954;28;20182;-68
2021/03/23 07:29:24;;;;;;;61.83;32.30;;;;;;;;;;5038730;28;20186;-68
2021/03/23 07:31:55;;;;;;;67.30;30.43;;;;;;;;;;5041432;28;20252;-68
2021/03/23 07:34:32;;;;;;;59.73;31.73;;;;;;;;;;5041105;28;20243;-67
2021/03/23 07:36:59;;;;;;;63.33;32.90;;;;;;;;;;5041528;28;20265;-68
2021/03/23 07:39:30;;;;;;;64.27;32.53;;;;;;;;;;5038019;28;20182;-68
2021/03/23 07:42:07;;;;;;;63.67;32.63;;;;;;;;;;5042864;28;20180;-68
2021/03/23 07:44:32;;;;;;;67.57;32.77;;;;;;;;;;5048711;28;20182;-67
2021/03/23 07:46:59;;;;;;;71.40;35.13;;;;;;;;;;5050433;28;20315;-68
2021/03/23 07:49:30;;;;;;;62.87;31.00;;;;;;;;;;5050925;28;20268;-68
2021/03/23 07:52:12;;;;;;;58.67;30.67;;;;;;;;;;5036149;28;20664;-68
2021/03/23 07:54:38;;;;;;;71.87;32.27;;;;;;;;;;5046901;28;20181;-68
2021/03/23 07:57:11;;;;;;;65.17;31.10;;;;;;;;;;5051724;28;20182;-67
2021/03/23 08:00:02;;;;;;;65.87;32.20;;;;;;;;;;5046543;28;20189;-68
2021/03/23 08:02:33;;;;;;;70.03;32.53;;;;;;;;;;5033338;28;20177;-68
2021/03/23 08:04:58;;;;;;;61.00;30.23;;;;;;;;;;5041299;28;20711;-68
2021/03/23 08:07:29;;;;;;;64.23;33.17;;;;;;;;;;5043035;28;20260;-68
2021/03/23 08:09:57;;;;;;;66.07;32.30;;;;;;;;;;5046610;28;20203;-68
2021/03/23 08:12:36;;;;;;;73.63;32.73;;;;;;;;;;5049409;28;20655;-68
2021/03/23 08:15:08;;;;;;;64.93;32.77;;;;;;;;;;5045247;28;20537;-68
2021/03/23 08:17:39;;;;;;;61.37;29.87;;;;;;;;;;5047604;28;20173;-68
2021/03/23 08:20:23;;;;;;;63.30;31.93;;;;;;;;;;5029375;28;20714;-68
2021/03/23 08:22:54;;;;;;;67.00;31.27;;;;;;;;;;5028853;28;20193;-67
2021/03/23 08:25:19;;;;;;;56.57;29.30;;;;;;;;;;5025554;28;20194;-66
2021/03/23 08:28:10;;;;;;;65.83;30.47;;;;;;;;;;5035743;28;20178;-67
2021/03/23 08:30:35;;;;;;;68.13;31.63;;;;;;;;;;5022148;28;20505;-67
2021/03/23 08:33:12;;;;;;;72.57;29.67;;;;;;;;;;5024692;28;20233;-66
2021/03/23 08:35:56;;;;;;;63.10;29.57;;;;;;;;;;5024959;28;20746;-68
2021/03/23 08:38:40;;;;;;;56.53;28.03;;;;;;;;;;5034966;28;20184;-67
2021/03/23 08:41:12;;;;;;;58.10;29.30;;;;;;;;;;5024555;28;20261;-67
2021/03/23 08:43:39;;;;;;;65.40;30.67;;;;;;;;;;5029710;28;20201;-67
2021/03/23 08:46:08;;;;;;;58.07;29.63;;;;;;;;;;5022407;28;20194;-66
2021/03/23 08:48:42;;;;;;;54.20;28.50;;;;;;;;;;5026073;28;20190;-66
2021/03/23 08:51:09;;;;;;;60.10;28.70;;;;;;;;;;5023497;28;20208;-67
2021/03/23 08:53:34;;;;;;;53.60;29.63;;;;;;;;;;5024906;28;20228;-67
2021/03/23 08:56:00;;;;;;;55.22;28.00;;;;;;;;;;5023280;28;20785;-66
2021/03/23 08:58:39;;;;;;;49.93;28.80;;;;;;;;;;5025337;28;20193;-67
2021/03/23 09:01:05;;;;;;;52.83;28.73;;;;;;;;;;5024268;28;20648;-68
2021/03/23 09:03:39;;;;;;;58.00;27.80;;;;;;;;;;5035419;28;20666;-67
2021/03/23 09:06:04;;;;;;;48.47;27.17;;;;;;;;;;5046285;28;20182;-67
2021/03/23 09:08:39;;;;;;;53.03;27.17;;;;;;;;;;5031315;28;20192;-68
2021/03/23 09:11:07;;;;;;;51.83;27.87;;;;;;;;;;5030558;28;20601;-67
2021/03/23 09:13:35;;;;;;;46.13;27.87;;;;;;;;;;5023590;28;20187;-66
2021/03/23 09:16:12;;;;;;;48.30;25.60;;;;;;;;;;5025787;28;20178;-68
2021/03/23 09:18:58;;;;;;;45.17;27.47;;;;;;;;;;5024958;28;20543;-67
2021/03/23 09:21:23;;;;;;;50.40;29.10;;;;;;;;;;5024557;28;21928;-67
2021/03/23 09:23:51;;;;;;;49.43;27.73;;;;;;;;;;5027781;28;20182;-68
2021/03/23 09:26:34;;;;;;;45.87;27.30;;;;;;;;;;5025699;28;20277;-67
2021/03/23 09:29:18;;;;;;;56.37;29.33;;;;;;;;;;5031432;28;20662;-67
2021/03/23 09:31:46;;;;;;;47.13;25.73;;;;;;;;;;5028626;28;20202;-66
2021/03/23 09:34:30;;;;;;;47.60;28.03;;;;;;;;;;5027127;28;20206;-67
2021/03/23 09:36:55;;;;;;;51.30;28.93;;;;;;;;;;5023906;28;20201;-67
2021/03/23 09:39:20;;;;;;;51.80;28.67;;;;;;;;;;5022829;28;20918;-66
2021/03/23 09:42:04;;;;;;;44.20;27.23;;;;;;;;;;5031368;28;20279;-67
2021/03/23 09:44:38;;;;;;;49.57;26.77;;;;;;;;;;5028497;28;20437;-68
2021/03/23 09:47:04;;;;;;;45.47;27.53;;;;;;;;;;5026337;28;20185;-66
2021/03/23 09:49:41;;;;;;;47.83;28.33;;;;;;;;;;5027841;28;20210;-67
2021/03/23 09:52:09;;;;;;;43.90;26.47;;;;;;;;;;5025393;28;20196;-68
2021/03/23 09:54:35;;;;;;;49.93;27.67;;;;;;;;;;5028899;28;20175;-67
2021/03/23 09:57:15;;;;;;;43.83;26.03;;;;;;;;;;5026276;28;20275;-67
2021/03/23 09:59:47;;;;;;;43.93;26.77;;;;;;;;;;5029536;28;20525;-68
2021/03/23 10:02:19;;;;;;;51.30;29.40;;;;;;;;;;5026490;28;20182;-68
2021/03/23 10:04:45;;;;;;;42.50;27.70;;;;;;;;;;5028072;28;20214;-67
2021/03/23 10:07:39;;;;;;;40.57;27.03;;;;;;;;;;5028422;28;21190;-68
2021/03/23 10:10:12;;;;;;;50.40;27.73;;;;;;;;;;5029221;28;20316;-68
2021/03/23 10:12:37;;;;;;;43.90;27.60;;;;;;;;;;5032076;28;20204;-68
2021/03/23 10:15:27;;;;;;;45.33;28.37;;;;;;;;;;5024883;28;20270;-67
2021/03/23 10:18:06;;;;;;;47.00;27.50;;;;;;;;;;5023470;28;20196;-66
2021/03/23 10:20:31;;;;;;;44.80;26.60;;;;;;;;;;5027392;28;20202;-67
2021/03/23 10:22:57;;;;;;;49.43;27.63;;;;;;;;;;5028036;28;20231;-67
2021/03/23 10:25:24;;;;;;;42.73;28.70;;;;;;;;;;5026875;28;20201;-67
2021/03/23 10:27:49;;;;;;;46.47;28.13;;;;;;;;;;5026634;28;20884;-66
2021/03/23 10:30:16;;;;;;;44.30;26.60;;;;;;;;;;5025705;28;20299;-68
2021/03/23 10:32:47;;;;;;;48.23;27.67;;;;;;;;;;5031002;28;20201;-67
2021/03/23 10:35:18;;;;;;;45.23;27.33;;;;;;;;;;5026264;28;20198;-69
2021/03/23 10:37:43;;;;;;;49.27;29.70;;;;;;;;;;5025052;28;20196;-68
2021/03/23 10:40:29;;;;;;;42.43;27.00;;;;;;;;;;5026823;28;20688;-67
2021/03/23 10:42:54;;;;;;;42.73;29.67;;;;;;;;;;5027977;28;20308;-67
2021/03/23 10:45:25;;;;;;;41.27;26.60;;;;;;;;;;5025650;28;20689;-65
2021/03/23 10:48:01;;;;;;;47.70;27.30;;;;;;;;;;5025783;28;20647;-69
2021/03/23 10:50:27;;;;;;;41.93;28.43;;;;;;;;;;5025066;28;20214;-65
2021/03/23 10:53:07;;;;;;;42.97;26.17;;;;;;;;;;5024856;28;20651;-67
2021/03/23 10:55:33;;;;;;;45.17;26.80;;;;;;;;;;5023586;28;20197;-67
2021/03/23 10:58:14;;;;;;;43.53;25.40;;;;;;;;;;5025366;28;20189;-67
2021/03/23 11:00:40;;;;;;;40.10;25.10;;;;;;;;;;5025776;28;20263;-67
2021/03/23 11:03:24;;;;;;;41.30;26.47;;;;;;;;;;5033889;28;20173;-67
2021/03/23 11:05:50;;;;;;;44.77;27.10;;;;;;;;;;5024059;28;20175;-66
2021/03/23 11:08:16;;;;;;;44.90;26.87;;;;;;;;;;5029106;28;20237;-66
2021/03/23 11:10:42;;;;;;;47.43;26.87;;;;;;;;;;5025151;28;20217;-67
2021/03/23 11:13:09;;;;;;;46.03;25.70;;;;;;;;;;5025467;28;20590;-67
2021/03/23 11:15:46;;;;;;;48.20;28.57;;;;;;;;;;5024350;28;20661;-65
2021/03/23 11:18:16;;;;;;;44.80;27.43;;;;;;;;;;5024275;28;20174;-67
2021/03/23 11:20:43;;;;;;;49.73;28.50;;;;;;;;;;5024982;28;20197;-67
2021/03/23 11:23:21;;;;;;;46.43;28.03;;;;;;;;;;5024771;28;20264;-67
2021/03/23 11:25:47;;;;;;;46.33;28.10;;;;;;;;;;5023959;28;20189;-66
2021/03/23 11:28:16;;;;;;;42.27;26.27;;;;;;;;;;5026949;28;20174;-67
2021/03/23 11:30:41;;;;;;;40.23;25.77;;;;;;;;;;5027656;28;20210;-67
2021/03/23 11:33:06;;;;;;;42.20;27.90;;;;;;;;;;5032237;28;20190;-66
2021/03/23 11:35:31;;;;;;;43.33;27.47;;;;;;;;;;5026546;28;20179;-67
2021/03/23 11:37:56;;;;;;;46.77;26.43;;;;;;;;;;5029148;28;20177;-65
2021/03/23 11:40:22;;;;;;;47.47;27.93;;;;;;;;;;5025100;28;20741;-68
2021/03/23 11:42:49;;;;;;;44.40;27.03;;;;;;;;;;5028901;28;20191;-65
2021/03/23 11:45:26;;;;;;;42.33;27.43;;;;;;;;;;5021781;28;20181;-65
2021/03/23 11:47:56;;;;;;;45.77;26.60;;;;;;;;;;5025044;28;20247;-67
2021/03/23 11:50:23;;;;;;;44.33;28.43;;;;;;;;;;5024872;28;20217;-66
2021/03/23 11:52:49;;;;;;;42.60;26.97;;;;;;;;;;5025765;28;20609;-67
2021/03/23 11:55:16;;;;;;;44.93;28.13;;;;;;;;;;5024084;28;20702;-67
2021/03/23 11:57:42;;;;;;;42.33;26.97;;;;;;;;;;5025580;28;20179;-67
2021/03/23 12:00:09;;;;;;;43.03;27.53;;;;;;;;;;5024102;28;20216;-67
2021/03/23 12:02:34;;;;;;;43.67;26.97;;;;;;;;;;5026702;28;20196;-67
2021/03/23 12:05:00;;;;;;;51.10;29.53;;;;;;;;;;5024504;28;20178;-66
2021/03/23 12:07:31;;;;;;;47.17;27.80;;;;;;;;;;5023941;28;20205;-67
2021/03/23 12:10:09;;;;;;;45.53;27.73;;;;;;;;;;5033417;28;20611;-67
2021/03/23 12:12:34;;;;;;;51.53;29.13;;;;;;;;;;5030015;28;20690;-67
2021/03/23 12:15:10;;;;;;;47.77;29.30;;;;;;;;;;5024464;28;20183;-67
2021/03/23 12:17:37;;;;;;;44.73;26.53;;;;;;;;;;5022339;28;20174;-67
2021/03/23 12:20:07;;;;;;;45.67;29.37;;;;;;;;;;5023620;28;20206;-66
2021/03/23 12:22:32;;;;;;;43.03;27.03;;;;;;;;;;5024008;28;20239;-66
2021/03/23 12:24:57;;;;;;;43.40;27.57;;;;;;;;;;5021391;28;20664;-67
2021/03/23 12:27:24;;;;;;;44.87;27.93;;;;;;;;;;5025895;28;20187;-67
2021/03/23 12:29:49;;;;;;;49.20;28.33;;;;;;;;;;5026331;28;20210;-67
2021/03/23 12:32:16;;;;;;;47.97;28.07;;;;;;;;;;5023590;28;20204;-67
2021/03/23 12:34:42;;;;;;;43.27;26.97;;;;;;;;;;5026204;28;20194;-67
2021/03/23 12:37:07;;;;;;;46.47;27.47;;;;;;;;;;5025377;28;20192;-67
2021/03/23 12:39:32;;;;;;;46.47;29.10;;;;;;;;;;5026917;28;20225;-66
2021/03/23 12:41:58;;;;;;;49.97;28.90;;;;;;;;;;5030271;28;20217;-67
2021/03/23 12:44:23;;;;;;;43.40;26.20;;;;;;;;;;5022983;28;20670;-66
2021/03/23 12:46:48;;;;;;;45.00;28.20;;;;;;;;;;5023888;28;20190;-67
2021/03/23 12:49:13;;;;;;;43.70;26.67;;;;;;;;;;5023191;28;20273;-67
2021/03/23 12:51:41;;;;;;;41.30;27.60;;;;;;;;;;5030793;28;20209;-67
2021/03/23 12:54:14;;;;;;;39.70;26.40;;;;;;;;;;5024369;28;22288;-66
2021/03/23 12:56:40;;;;;;;42.70;28.90;;;;;;;;;;5023000;28;20185;-67
2021/03/23 12:59:05;;;;;;;45.00;28.13;;;;;;;;;;5032214;28;20589;-67
2021/03/23 13:01:30;;;;;;;44.50;28.00;;;;;;;;;;5025976;28;20682;-66
2021/03/23 13:03:57;;;;;;;44.63;27.10;;;;;;;;;;5024896;28;20725;-66
2021/03/23 13:06:25;;;;;;;45.30;27.07;;;;;;;;;;5025230;28;20281;-66
2021/03/23 13:08:51;;;;;;;42.20;25.83;;;;;;;;;;5031966;28;20178;-67
2021/03/23 13:11:17;;;;;;;36.10;24.23;;;;;;;;;;5024622;28;20228;-68
2021/03/23 13:13:50;;;;;;;41.00;27.67;;;;;;;;;;5020983;28;20256;-67
2021/03/23 13:16:16;;;;;;;42.93;27.40;;;;;;;;;;5023445;28;20220;-67
2021/03/23 13:18:42;;;;;;;43.90;27.93;;;;;;;;;;5026936;28;20738;-66
2021/03/23 13:21:07;;;;;;;45.37;29.90;;;;;;;;;;5026206;28;20194;-67
2021/03/23 13:23:37;;;;;;;41.80;28.23;;;;;;;;;;5027780;28;20742;-67
2021/03/23 13:26:03;;;;;;;41.07;30.57;;;;;;;;;;5027610;28;20200;-67
2021/03/23 13:28:28;;;;;;;43.83;28.53;;;;;;;;;;5030936;28;20175;-67
2021/03/23 13:30:54;;;;;;;42.30;29.60;;;;;;;;;;5024442;28;20209;-67
2021/03/23 13:33:19;;;;;;;41.27;28.20;;;;;;;;;;5024404;28;20659;-68
2021/03/23 13:35:45;;;;;;;38.87;25.80;;;;;;;;;;5026134;28;20177;-67
2021/03/23 13:38:12;;;;;;;33.43;24.57;;;;;;;;;;5027775;28;20175;-67
2021/03/23 13:40:37;;;;;;;35.37;25.73;;;;;;;;;;5026675;28;20711;-67
2021/03/23 13:43:03;;;;;;;35.33;23.67;;;;;;;;;;5030382;28;20182;-68
2021/03/23 13:45:30;;;;;;;37.00;24.37;;;;;;;;;;5031076;28;20185;-67
2021/03/23 13:47:56;;;;;;;36.30;24.13;;;;;;;;;;5025704;28;20189;-67
2021/03/23 13:50:24;;;;;;;36.37;25.33;;;;;;;;;;5026422;28;20210;-67
2021/03/23 13:52:51;;;;;;;34.90;25.37;;;;;;;;;;5028098;28;20185;-67
2021/03/23 13:55:25;;;;;;;32.13;24.57;;;;;;;;;;5025027;28;20458;-67
2021/03/23 13:57:51;;;;;;;33.10;24.47;;;;;;;;;;5028201;28;20820;-68
2021/03/23 14:00:18;;;;;;;38.23;24.97;;;;;;;;;;5027287;28;20198;-67
2021/03/23 14:02:43;;;;;;;33.23;22.43;;;;;;;;;;5027734;28;20209;-68
2021/03/23 14:05:09;;;;;;;29.53;22.80;;;;;;;;;;5024704;28;20658;-65
2021/03/23 14:07:39;;;;;;;29.47;22.80;;;;;;;;;;5025815;28;20214;-67
2021/03/23 14:10:05;;;;;;;30.87;22.20;;;;;;;;;;5029805;28;20201;-66
2021/03/23 14:12:31;;;;;;;28.93;22.10;;;;;;;;;;5027940;28;20186;-67
2021/03/23 14:14:57;;;;;;;27.40;21.80;;;;;;;;;;5025823;28;20193;-68
2021/03/23 14:17:24;;;;;;;30.63;22.17;;;;;;;;;;5022476;28;21637;-68
2021/03/23 14:19:49;;;;;;;32.53;21.43;;;;;;;;;;5024489;28;20197;-67
2021/03/23 14:22:18;;;;;;;30.60;19.90;;;;;;;;;;5026095;28;20184;-67
2021/03/23 14:24:43;;;;;;;28.50;21.63;;;;;;;;;;5025778;28;20760;-68
2021/03/23 14:27:09;;;;;;;30.07;18.47;;;;;;;;;;5024874;28;20795;-66